Time;durP1;ratioP1;P1;durP2;ratioP2;P2;SDS_P1;SDS_P2;PMS_P1;PMS_P2;Temp;Humidity;BMP_temperature;BMP_pressure;BME280_temperature;BME280_humidity;BME280_pressure;Samples;Min_cycle;Max_cycle;Signal;HPM_P1;HPM_P2
2022/11/11 07:08:02;;;;;;;4.65;2.72;;;;;;;;;;10582230;27;20441;-84
2022/11/11 07:13:07;;;;;;;7.05;3.83;;;;;;;;;;10547819;28;20087;-84
2022/11/11 07:18:08;;;;;;;3.00;2.10;;;;;;;;;;10547135;28;20060;-84
2022/11/11 07:23:12;;;;;;;;;;;;;;;;;;10550950;28;20028;-84
2022/11/11 07:28:13;;;;;;;3.65;2.25;;;;;;;;;;10547696;28;19927;-84
2022/11/11 07:33:19;;;;;;;3.10;2.05;;;;;;;;;;10546360;28;20412;-84
2022/11/11 07:38:20;;;;;;;3.92;2.22;;;;;;;;;;10547036;28;20035;-84
2022/11/11 07:43:23;;;;;;;9.63;6.10;;;;;;;;;;10542898;28;20064;-85
2022/11/11 07:48:24;;;;;;;3.17;1.80;;;;;;;;;;10545229;28;20032;-84
2022/11/11 07:53:27;;;;;;;3.45;1.80;;;;;;;;;;10541163;28;20437;-85
2022/11/11 07:58:28;;;;;;;3.70;2.30;;;;;;;;;;10543015;28;20119;-82
2022/11/11 08:03:48;;;;;;;3.75;1.80;;;;;;;;;;10546643;28;20107;-86
2022/11/11 08:08:52;;;;;;;3.67;1.90;;;;;;;;;;10521193;28;20043;-83
2022/11/11 08:14:20;;;;;;;2.55;1.70;;;;;;;;;;10521965;28;20326;-85
2022/11/11 08:19:56;;;;;;;4.55;2.00;;;;;;;;;;10526443;28;20052;-83
2022/11/11 08:25:29;;;;;;;2.65;2.00;;;;;;;;;;10527944;28;20037;-83
2022/11/11 08:30:34;;;;;;;4.32;2.15;;;;;;;;;;10527412;28;20025;-84
2022/11/11 08:36:06;;;;;;;3.08;1.85;;;;;;;;;;10516383;28;20051;-85
2022/11/11 08:41:22;;;;;;;4.43;2.28;;;;;;;;;;10516372;28;20055;-86
2022/11/11 08:46:45;;;;;;;3.58;1.80;;;;;;;;;;10515136;28;20021;-83
2022/11/11 09:02:08;;;;;;;;;;;;;;;;;;10482698;23;20060;-83
2022/11/11 09:07:39;;;;;;;4.53;1.92;;;;;;;;;;10472914;28;19920;-83
2022/11/11 09:13:12;;;;;;;3.85;2.10;;;;;;;;;;11072148;23;20445;-82
2022/11/11 09:18:17;;;;;;;3.00;2.00;;;;;;;;;;10471919;28;20029;-82
2022/11/11 09:23:45;;;;;;;3.60;1.73;;;;;;;;;;10496967;23;20523;-84
2022/11/11 09:34:38;;;;;;;5.32;3.13;;;;;;;;;;10473433;28;20033;-83
2022/11/11 09:39:51;;;;;;;3.58;2.20;;;;;;;;;;10407549;28;20029;-83
2022/11/11 09:50:57;;;;;;;;;;;;;;;;;;;;;
2022/11/11 09:56:06;;;;;;;3.95;1.90;;;;;;;;;;10469029;28;20028;-83
2022/11/11 10:01:34;;;;;;;3.40;1.83;;;;;;;;;;10470535;28;20092;-82
2022/11/11 10:06:36;;;;;;;4.40;1.95;;;;;;;;;;10427986;28;20056;-83
2022/11/11 10:12:11;;;;;;;5.05;2.70;;;;;;;;;;10430376;28;20021;-83
2022/11/11 10:17:42;;;;;;;4.03;2.30;;;;;;;;;;10428305;28;20052;-84
2022/11/11 10:22:45;;;;;;;3.83;2.67;;;;;;;;;;10421843;28;20099;-83
2022/11/11 10:27:48;;;;;;;6.20;3.83;;;;;;;;;;10430182;28;20044;-82
2022/11/11 10:33:05;;;;;;;6.05;4.63;;;;;;;;;;10427723;28;20406;-83
2022/11/11 10:38:11;;;;;;;4.32;2.40;;;;;;;;;;10426185;28;20032;-82
2022/11/11 10:43:24;;;;;;;4.88;2.53;;;;;;;;;;10427596;28;20030;-84
2022/11/11 10:49:18;;;;;;;5.05;2.92;;;;;;;;;;10428346;28;20037;-83
2022/11/11 10:54:40;;;;;;;4.18;2.80;;;;;;;;;;10365054;28;20045;-84
2022/11/11 11:00:20;;;;;;;3.70;2.40;;;;;;;;;;10425366;28;20034;-83
2022/11/11 11:05:37;;;;;;;4.77;2.23;;;;;;;;;;10423538;28;20048;-83
2022/11/11 11:16:31;;;;;;;6.57;5.10;;;;;;;;;;10428956;28;20053;-85
2022/11/11 11:21:48;;;;;;;4.43;3.03;;;;;;;;;;10427663;28;20026;-84
2022/11/11 11:43:47;;;;;;;3.65;2.30;;;;;;;;;;10556818;28;20036;-85
2022/11/11 11:49:26;;;;;;;2.88;1.80;;;;;;;;;;10560406;28;20391;-86
2022/11/11 12:01:13;;;;;;;7.95;3.30;;;;;;;;;;10348631;28;20042;-85
2022/11/11 12:23:50;;;;;;;4.00;1.60;;;;;;;;;;10361973;28;20029;-86
2022/11/11 12:29:32;;;;;;;3.85;1.75;;;;;;;;;;10373820;28;20454;-86
2022/11/11 12:40:57;;;;;;;4.40;1.98;;;;;;;;;;10349352;28;20042;-85
2022/11/11 12:52:14;;;;;;;3.22;2.13;;;;;;;;;;10347911;28;20033;-85
2022/11/11 12:58:05;;;;;;;5.22;2.05;;;;;;;;;;10265571;28;20063;-84
2022/11/11 13:03:37;;;;;;;4.78;2.50;;;;;;;;;;10226073;29;20123;-84
2022/11/11 13:09:33;;;;;;;2.90;1.42;;;;;;;;;;10334563;28;20045;-85
2022/11/11 13:15:04;;;;;;;4.72;1.95;;;;;;;;;;10299312;28;20093;-84
2022/11/11 13:32:33;;;;;;;3.50;1.70;;;;;;;;;;10347347;28;20541;-84
2022/11/11 13:37:38;;;;;;;4.03;1.77;;;;;;;;;;10304170;28;20053;-85
2022/11/11 13:42:59;;;;;;;3.30;1.73;;;;;;;;;;10413859;28;20061;-84
2022/11/11 13:48:06;;;;;;;3.40;1.75;;;;;;;;;;10533045;28;20032;-85
2022/11/11 13:53:28;;;;;;;2.92;1.42;;;;;;;;;;10539351;28;20078;-85
2022/11/11 13:58:32;;;;;;;5.53;1.42;;;;;;;;;;10536630;28;20100;-84
2022/11/11 14:04:00;;;;;;;2.88;1.80;;;;;;;;;;10534796;28;20119;-84
2022/11/11 14:09:02;;;;;;;3.45;1.70;;;;;;;;;;10539537;28;20028;-84
2022/11/11 14:14:28;;;;;;;3.08;1.48;;;;;;;;;;10542145;28;20491;-84
2022/11/11 14:19:51;;;;;;;4.88;1.58;;;;;;;;;;10536816;28;20048;-85
2022/11/11 14:25:21;;;;;;;2.53;1.48;;;;;;;;;;10537553;28;20077;-85
2022/11/11 14:36:19;;;;;;;3.20;1.58;;;;;;;;;;10552005;28;20024;-85
2022/11/11 14:41:49;;;;;;;2.55;1.30;;;;;;;;;;10550474;28;20518;-85
2022/11/11 15:04:30;;;;;;;6.45;1.67;;;;;;;;;;10544871;28;20036;-85
2022/11/11 15:09:50;;;;;;;5.80;1.75;;;;;;;;;;10531907;28;20051;-84
2022/11/11 15:15:15;;;;;;;3.83;1.67;;;;;;;;;;10551556;28;20040;-85
2022/11/11 15:20:47;;;;;;;5.00;1.70;;;;;;;;;;10540384;28;20042;-84
2022/11/11 15:32:17;;;;;;;5.45;2.63;;;;;;;;;;10566174;28;20016;-85
2022/11/11 15:37:20;;;;;;;5.85;1.60;;;;;;;;;;10532231;28;20028;-85
2022/11/11 15:42:30;;;;;;;4.55;1.83;;;;;;;;;;10540218;28;20039;-85
2022/11/11 15:53:17;;;;;;;3.70;2.25;;;;;;;;;;10555093;28;20032;-85
2022/11/11 15:59:08;;;;;;;4.65;2.42;;;;;;;;;;10554378;28;20437;-85
2022/11/11 16:04:09;;;;;;;;;;;;;;;;;;10535347;28;20036;-85
2022/11/11 16:09:48;;;;;;;10.18;4.50;;;;;;;;;;10544113;28;19908;-85
2022/11/11 16:15:26;;;;;;;8.55;5.25;;;;;;;;;;10384250;28;20062;-87
2022/11/11 16:20:51;;;;;;;7.03;3.47;;;;;;;;;;10414363;28;20116;-85
2022/11/11 16:26:19;;;;;;;5.97;3.05;;;;;;;;;;10518542;28;20135;-85
2022/11/11 16:31:39;;;;;;;5.20;3.10;;;;;;;;;;10546291;28;20111;-85
2022/11/11 16:37:19;;;;;;;6.32;3.80;;;;;;;;;;10536353;28;20453;-84
2022/11/11 16:42:24;;;;;;;6.60;4.03;;;;;;;;;;10533764;28;20058;-84
2022/11/11 16:47:35;;;;;;;5.57;3.35;;;;;;;;;;10517317;28;20059;-83
2022/11/11 16:52:54;;;;;;;6.68;3.53;;;;;;;;;;10533420;28;20024;-83
2022/11/11 16:58:20;;;;;;;5.75;3.72;;;;;;;;;;10557982;28;20111;-84
2022/11/11 17:03:24;;;;;;;6.43;3.72;;;;;;;;;;10540421;28;20035;-84
2022/11/11 17:08:34;;;;;;;5.95;4.22;;;;;;;;;;10557403;28;20035;-83
2022/11/11 17:13:35;;;;;;;;;;;;;;;;;;10560467;28;20032;-84
2022/11/11 17:18:38;;;;;;;10.32;4.55;;;;;;;;;;10534263;28;19979;-83
2022/11/11 17:23:39;;;;;;;8.73;4.93;;;;;;;;;;10526006;28;20081;-85
2022/11/11 19:28:37;;;;;;;8.80;7.60;;;;;;;;;;10554334;28;20059;-88
2022/11/11 19:56:52;;;;;;;11.60;9.05;;;;;;;;;;10392488;28;20041;-90
